sensor_id;sensor_type;location;lat;lon;timestamp;P1;durP1;ratioP1;P2;durP2;ratioP2
22907;SDS011;11620;50.050;8.690;2023-04-06T00:02:25;0.80;;;0.80;;
22907;SDS011;11620;50.050;8.690;2023-04-06T00:05:12;0.80;;;0.80;;
22907;SDS011;11620;50.050;8.690;2023-04-06T00:07:58;0.80;;;0.80;;
22907;SDS011;11620;50.050;8.690;2023-04-06T00:10:45;0.80;;;0.80;;
22907;SDS011;11620;50.050;8.690;2023-04-06T00:13:31;0.80;;;0.80;;
22907;SDS011;11620;50.050;8.690;2023-04-06T00:16:17;0.83;;;0.83;;
22907;SDS011;11620;50.050;8.690;2023-04-06T00:19:04;0.70;;;0.70;;
22907;SDS011;11620;50.050;8.690;2023-04-06T00:21:50;0.80;;;0.80;;
22907;SDS011;11620;50.050;8.690;2023-04-06T00:24:37;0.80;;;0.80;;
22907;SDS011;11620;50.050;8.690;2023-04-06T00:27:23;0.83;;;0.83;;
22907;SDS011;11620;50.050;8.690;2023-04-06T00:30:10;0.70;;;0.70;;
22907;SDS011;11620;50.050;8.690;2023-04-06T00:32:56;0.90;;;0.90;;
22907;SDS011;11620;50.050;8.690;2023-04-06T00:35:43;0.70;;;0.70;;
22907;SDS011;11620;50.050;8.690;2023-04-06T00:38:29;0.90;;;0.90;;
22907;SDS011;11620;50.050;8.690;2023-04-06T00:41:15;0.73;;;0.73;;
22907;SDS011;11620;50.050;8.690;2023-04-06T00:44:03;0.70;;;0.70;;
22907;SDS011;11620;50.050;8.690;2023-04-06T00:46:49;0.90;;;0.90;;
22907;SDS011;11620;50.050;8.690;2023-04-06T00:49:35;0.90;;;0.90;;
22907;SDS011;11620;50.050;8.690;2023-04-06T00:52:22;0.80;;;0.80;;
22907;SDS011;11620;50.050;8.690;2023-04-06T00:55:08;0.90;;;0.90;;
22907;SDS011;11620;50.050;8.690;2023-04-06T00:57:58;0.80;;;0.80;;
22907;SDS011;11620;50.050;8.690;2023-04-06T01:00:46;0.80;;;0.80;;
22907;SDS011;11620;50.050;8.690;2023-04-06T01:03:33;0.70;;;0.70;;
22907;SDS011;11620;50.050;8.690;2023-04-06T01:06:19;0.80;;;0.80;;
22907;SDS011;11620;50.050;8.690;2023-04-06T01:09:05;0.90;;;0.90;;
22907;SDS011;11620;50.050;8.690;2023-04-06T01:11:52;0.70;;;0.70;;
22907;SDS011;11620;50.050;8.690;2023-04-06T01:14:38;0.80;;;0.80;;
22907;SDS011;11620;50.050;8.690;2023-04-06T01:17:25;0.80;;;0.80;;
22907;SDS011;11620;50.050;8.690;2023-04-06T01:20:11;0.80;;;0.80;;
22907;SDS011;11620;50.050;8.690;2023-04-06T01:22:57;0.80;;;0.80;;
22907;SDS011;11620;50.050;8.690;2023-04-06T01:25:44;0.80;;;0.80;;
22907;SDS011;11620;50.050;8.690;2023-04-06T01:28:30;0.90;;;0.90;;
22907;SDS011;11620;50.050;8.690;2023-04-06T01:31:16;0.80;;;0.80;;
22907;SDS011;11620;50.050;8.690;2023-04-06T01:34:03;0.80;;;0.80;;
22907;SDS011;11620;50.050;8.690;2023-04-06T01:36:49;0.80;;;0.80;;
22907;SDS011;11620;50.050;8.690;2023-04-06T01:39:35;0.80;;;0.80;;
22907;SDS011;11620;50.050;8.690;2023-04-06T01:42:22;0.77;;;0.77;;
22907;SDS011;11620;50.050;8.690;2023-04-06T01:45:08;0.90;;;0.90;;
22907;SDS011;11620;50.050;8.690;2023-04-06T01:47:55;0.80;;;0.80;;
22907;SDS011;11620;50.050;8.690;2023-04-06T01:50:42;0.80;;;0.80;;
22907;SDS011;11620;50.050;8.690;2023-04-06T01:53:28;0.63;;;0.63;;
22907;SDS011;11620;50.050;8.690;2023-04-06T01:56:14;0.80;;;0.80;;
22907;SDS011;11620;50.050;8.690;2023-04-06T01:59:01;0.80;;;0.80;;
22907;SDS011;11620;50.050;8.690;2023-04-06T02:01:47;0.90;;;0.90;;
22907;SDS011;11620;50.050;8.690;2023-04-06T02:04:34;0.80;;;0.80;;
22907;SDS011;11620;50.050;8.690;2023-04-06T02:07:20;0.90;;;0.90;;
22907;SDS011;11620;50.050;8.690;2023-04-06T02:10:11;0.70;;;0.70;;
22907;SDS011;11620;50.050;8.690;2023-04-06T02:12:59;0.77;;;0.77;;
22907;SDS011;11620;50.050;8.690;2023-04-06T02:15:45;0.80;;;0.80;;
22907;SDS011;11620;50.050;8.690;2023-04-06T02:18:31;0.80;;;0.80;;
22907;SDS011;11620;50.050;8.690;2023-04-06T02:21:18;0.80;;;0.80;;
22907;SDS011;11620;50.050;8.690;2023-04-06T02:24:05;0.80;;;0.80;;
22907;SDS011;11620;50.050;8.690;2023-04-06T02:26:52;0.80;;;0.80;;
22907;SDS011;11620;50.050;8.690;2023-04-06T02:29:38;0.90;;;0.90;;
22907;SDS011;11620;50.050;8.690;2023-04-06T02:32:25;0.80;;;0.80;;
22907;SDS011;11620;50.050;8.690;2023-04-06T02:35:11;0.70;;;0.70;;
22907;SDS011;11620;50.050;8.690;2023-04-06T02:37:57;1.00;;;1.00;;
22907;SDS011;11620;50.050;8.690;2023-04-06T02:40:44;0.80;;;0.80;;
22907;SDS011;11620;50.050;8.690;2023-04-06T02:43:30;0.80;;;0.80;;
22907;SDS011;11620;50.050;8.690;2023-04-06T02:46:18;0.80;;;0.80;;
22907;SDS011;11620;50.050;8.690;2023-04-06T02:49:05;0.87;;;0.87;;
22907;SDS011;11620;50.050;8.690;2023-04-06T02:51:51;0.90;;;0.90;;
22907;SDS011;11620;50.050;8.690;2023-04-06T02:54:37;0.80;;;0.80;;
22907;SDS011;11620;50.050;8.690;2023-04-06T02:57:24;0.87;;;0.87;;
22907;SDS011;11620;50.050;8.690;2023-04-06T03:00:10;0.90;;;0.90;;
22907;SDS011;11620;50.050;8.690;2023-04-06T03:02:58;0.83;;;0.83;;
22907;SDS011;11620;50.050;8.690;2023-04-06T03:05:44;0.80;;;0.80;;
22907;SDS011;11620;50.050;8.690;2023-04-06T03:08:30;0.90;;;0.90;;
22907;SDS011;11620;50.050;8.690;2023-04-06T03:11:17;0.73;;;0.73;;
22907;SDS011;11620;50.050;8.690;2023-04-06T03:14:03;0.83;;;0.83;;
22907;SDS011;11620;50.050;8.690;2023-04-06T03:16:50;0.80;;;0.80;;
22907;SDS011;11620;50.050;8.690;2023-04-06T03:19:36;0.90;;;0.90;;
22907;SDS011;11620;50.050;8.690;2023-04-06T03:22:22;0.80;;;0.80;;
22907;SDS011;11620;50.050;8.690;2023-04-06T03:25:09;0.83;;;0.83;;
22907;SDS011;11620;50.050;8.690;2023-04-06T03:27:55;0.83;;;0.83;;
22907;SDS011;11620;50.050;8.690;2023-04-06T03:30:42;0.90;;;0.90;;
22907;SDS011;11620;50.050;8.690;2023-04-06T03:33:28;0.80;;;0.80;;
22907;SDS011;11620;50.050;8.690;2023-04-06T03:36:15;0.80;;;0.80;;
22907;SDS011;11620;50.050;8.690;2023-04-06T03:39:01;0.80;;;0.80;;
22907;SDS011;11620;50.050;8.690;2023-04-06T03:41:47;0.90;;;0.90;;
22907;SDS011;11620;50.050;8.690;2023-04-06T03:44:34;0.90;;;0.90;;
22907;SDS011;11620;50.050;8.690;2023-04-06T03:47:20;0.80;;;0.80;;
22907;SDS011;11620;50.050;8.690;2023-04-06T03:50:07;0.87;;;0.87;;
22907;SDS011;11620;50.050;8.690;2023-04-06T03:52:53;0.80;;;0.80;;
22907;SDS011;11620;50.050;8.690;2023-04-06T03:55:40;0.80;;;0.80;;
22907;SDS011;11620;50.050;8.690;2023-04-06T03:58:26;0.80;;;0.80;;
22907;SDS011;11620;50.050;8.690;2023-04-06T04:01:12;0.80;;;0.80;;
22907;SDS011;11620;50.050;8.690;2023-04-06T04:03:59;0.80;;;0.80;;
22907;SDS011;11620;50.050;8.690;2023-04-06T04:06:45;0.83;;;0.83;;
22907;SDS011;11620;50.050;8.690;2023-04-06T04:09:32;0.80;;;0.80;;
22907;SDS011;11620;50.050;8.690;2023-04-06T04:12:18;0.80;;;0.80;;
22907;SDS011;11620;50.050;8.690;2023-04-06T04:15:04;0.80;;;0.80;;
22907;SDS011;11620;50.050;8.690;2023-04-06T04:17:51;0.90;;;0.90;;
22907;SDS011;11620;50.050;8.690;2023-04-06T04:20:37;0.90;;;0.90;;
22907;SDS011;11620;50.050;8.690;2023-04-06T04:23:24;0.80;;;0.80;;
22907;SDS011;11620;50.050;8.690;2023-04-06T04:26:10;0.90;;;0.90;;
22907;SDS011;11620;50.050;8.690;2023-04-06T04:28:57;1.00;;;1.00;;
22907;SDS011;11620;50.050;8.690;2023-04-06T04:31:43;0.90;;;0.90;;
22907;SDS011;11620;50.050;8.690;2023-04-06T04:34:29;0.90;;;0.90;;
22907;SDS011;11620;50.050;8.690;2023-04-06T04:37:16;0.80;;;0.80;;
22907;SDS011;11620;50.050;8.690;2023-04-06T04:40:03;0.90;;;0.90;;
22907;SDS011;11620;50.050;8.690;2023-04-06T04:42:49;0.90;;;0.90;;
22907;SDS011;11620;50.050;8.690;2023-04-06T04:45:36;0.80;;;0.80;;
22907;SDS011;11620;50.050;8.690;2023-04-06T04:48:23;0.90;;;0.90;;
22907;SDS011;11620;50.050;8.690;2023-04-06T04:51:09;0.80;;;0.80;;
22907;SDS011;11620;50.050;8.690;2023-04-06T04:53:55;0.90;;;0.90;;
22907;SDS011;11620;50.050;8.690;2023-04-06T04:56:42;0.93;;;0.93;;
22907;SDS011;11620;50.050;8.690;2023-04-06T04:59:28;0.80;;;0.80;;
22907;SDS011;11620;50.050;8.690;2023-04-06T05:02:15;0.90;;;0.90;;
22907;SDS011;11620;50.050;8.690;2023-04-06T05:05:01;0.90;;;0.90;;
22907;SDS011;11620;50.050;8.690;2023-04-06T05:07:48;0.90;;;0.90;;
22907;SDS011;11620;50.050;8.690;2023-04-06T05:10:34;0.93;;;0.93;;
22907;SDS011;11620;50.050;8.690;2023-04-06T05:13:21;0.90;;;0.90;;
22907;SDS011;11620;50.050;8.690;2023-04-06T05:16:07;0.90;;;0.90;;
22907;SDS011;11620;50.050;8.690;2023-04-06T05:18:54;0.80;;;0.80;;
22907;SDS011;11620;50.050;8.690;2023-04-06T05:21:42;0.90;;;0.90;;
22907;SDS011;11620;50.050;8.690;2023-04-06T05:24:28;0.90;;;0.90;;
22907;SDS011;11620;50.050;8.690;2023-04-06T05:27:15;0.90;;;0.90;;
22907;SDS011;11620;50.050;8.690;2023-04-06T05:30:03;0.80;;;0.80;;
22907;SDS011;11620;50.050;8.690;2023-04-06T05:32:49;0.83;;;0.83;;
22907;SDS011;11620;50.050;8.690;2023-04-06T05:35:36;0.90;;;0.90;;
22907;SDS011;11620;50.050;8.690;2023-04-06T05:38:22;0.90;;;0.90;;
22907;SDS011;11620;50.050;8.690;2023-04-06T05:41:08;0.90;;;0.90;;
22907;SDS011;11620;50.050;8.690;2023-04-06T05:43:55;0.97;;;0.97;;
22907;SDS011;11620;50.050;8.690;2023-04-06T05:46:41;0.90;;;0.90;;
22907;SDS011;11620;50.050;8.690;2023-04-06T05:49:27;0.97;;;0.97;;
22907;SDS011;11620;50.050;8.690;2023-04-06T05:52:14;1.00;;;1.00;;
22907;SDS011;11620;50.050;8.690;2023-04-06T05:55:00;0.90;;;0.90;;
22907;SDS011;11620;50.050;8.690;2023-04-06T05:57:46;1.00;;;1.00;;
22907;SDS011;11620;50.050;8.690;2023-04-06T06:00:33;0.90;;;0.90;;
22907;SDS011;11620;50.050;8.690;2023-04-06T06:03:20;1.00;;;1.00;;
22907;SDS011;11620;50.050;8.690;2023-04-06T06:06:08;0.90;;;0.90;;
22907;SDS011;11620;50.050;8.690;2023-04-06T06:08:54;0.90;;;0.90;;
22907;SDS011;11620;50.050;8.690;2023-04-06T06:11:41;0.97;;;0.97;;
22907;SDS011;11620;50.050;8.690;2023-04-06T06:14:28;0.90;;;0.90;;
22907;SDS011;11620;50.050;8.690;2023-04-06T06:17:14;0.90;;;0.90;;
22907;SDS011;11620;50.050;8.690;2023-04-06T06:20:01;0.97;;;0.97;;
22907;SDS011;11620;50.050;8.690;2023-04-06T06:22:47;1.10;;;1.10;;
22907;SDS011;11620;50.050;8.690;2023-04-06T06:25:33;0.90;;;0.90;;
22907;SDS011;11620;50.050;8.690;2023-04-06T06:28:20;0.90;;;0.90;;
22907;SDS011;11620;50.050;8.690;2023-04-06T06:31:06;0.90;;;0.90;;
22907;SDS011;11620;50.050;8.690;2023-04-06T06:33:52;1.00;;;1.00;;
22907;SDS011;11620;50.050;8.690;2023-04-06T06:36:39;1.00;;;1.00;;
22907;SDS011;11620;50.050;8.690;2023-04-06T06:39:25;1.00;;;1.00;;
22907;SDS011;11620;50.050;8.690;2023-04-06T06:42:12;1.10;;;1.10;;
22907;SDS011;11620;50.050;8.690;2023-04-06T06:44:58;0.90;;;0.90;;
22907;SDS011;11620;50.050;8.690;2023-04-06T06:47:45;0.90;;;0.90;;
22907;SDS011;11620;50.050;8.690;2023-04-06T06:50:31;1.00;;;1.00;;
22907;SDS011;11620;50.050;8.690;2023-04-06T06:53:18;0.93;;;0.93;;
22907;SDS011;11620;50.050;8.690;2023-04-06T06:56:05;1.00;;;1.00;;
22907;SDS011;11620;50.050;8.690;2023-04-06T06:58:51;0.90;;;0.90;;
22907;SDS011;11620;50.050;8.690;2023-04-06T07:01:38;1.00;;;1.00;;
22907;SDS011;11620;50.050;8.690;2023-04-06T07:04:24;1.00;;;1.00;;
22907;SDS011;11620;50.050;8.690;2023-04-06T07:07:10;1.00;;;1.00;;
22907;SDS011;11620;50.050;8.690;2023-04-06T07:09:57;1.00;;;1.00;;
22907;SDS011;11620;50.050;8.690;2023-04-06T07:12:43;1.10;;;1.10;;
22907;SDS011;11620;50.050;8.690;2023-04-06T07:15:29;0.80;;;0.80;;
22907;SDS011;11620;50.050;8.690;2023-04-06T07:18:16;1.00;;;1.00;;
22907;SDS011;11620;50.050;8.690;2023-04-06T07:21:03;0.90;;;0.90;;
22907;SDS011;11620;50.050;8.690;2023-04-06T07:23:49;0.90;;;0.90;;
22907;SDS011;11620;50.050;8.690;2023-04-06T07:26:36;0.93;;;0.93;;
22907;SDS011;11620;50.050;8.690;2023-04-06T07:29:22;1.00;;;1.00;;
22907;SDS011;11620;50.050;8.690;2023-04-06T07:32:09;1.00;;;1.00;;
22907;SDS011;11620;50.050;8.690;2023-04-06T07:34:56;0.97;;;0.97;;
22907;SDS011;11620;50.050;8.690;2023-04-06T07:37:43;1.00;;;1.00;;
22907;SDS011;11620;50.050;8.690;2023-04-06T07:40:30;1.00;;;1.00;;
22907;SDS011;11620;50.050;8.690;2023-04-06T07:43:18;1.00;;;1.00;;
22907;SDS011;11620;50.050;8.690;2023-04-06T07:46:04;1.00;;;1.00;;
22907;SDS011;11620;50.050;8.690;2023-04-06T07:48:51;0.80;;;0.80;;
22907;SDS011;11620;50.050;8.690;2023-04-06T07:51:38;1.03;;;1.03;;
22907;SDS011;11620;50.050;8.690;2023-04-06T07:54:25;1.00;;;1.00;;
22907;SDS011;11620;50.050;8.690;2023-04-06T07:57:11;0.90;;;0.90;;
22907;SDS011;11620;50.050;8.690;2023-04-06T07:59:58;0.97;;;0.97;;
22907;SDS011;11620;50.050;8.690;2023-04-06T08:02:44;0.90;;;0.90;;
22907;SDS011;11620;50.050;8.690;2023-04-06T08:05:30;1.00;;;1.00;;
22907;SDS011;11620;50.050;8.690;2023-04-06T08:08:17;1.00;;;1.00;;
22907;SDS011;11620;50.050;8.690;2023-04-06T08:11:03;0.90;;;0.90;;
22907;SDS011;11620;50.050;8.690;2023-04-06T08:13:50;0.80;;;0.80;;
22907;SDS011;11620;50.050;8.690;2023-04-06T08:16:36;0.90;;;0.90;;
22907;SDS011;11620;50.050;8.690;2023-04-06T08:19:22;1.00;;;1.00;;
22907;SDS011;11620;50.050;8.690;2023-04-06T08:22:09;0.87;;;0.87;;
22907;SDS011;11620;50.050;8.690;2023-04-06T08:24:55;0.90;;;0.90;;
22907;SDS011;11620;50.050;8.690;2023-04-06T08:27:42;0.90;;;0.90;;
22907;SDS011;11620;50.050;8.690;2023-04-06T08:30:28;1.00;;;1.00;;
22907;SDS011;11620;50.050;8.690;2023-04-06T08:33:15;0.90;;;0.90;;
22907;SDS011;11620;50.050;8.690;2023-04-06T08:36:10;0.93;;;0.93;;
22907;SDS011;11620;50.050;8.690;2023-04-06T08:38:38;0.90;;;0.90;;
22907;SDS011;11620;50.050;8.690;2023-04-06T08:41:12;0.90;;;0.90;;
22907;SDS011;11620;50.050;8.690;2023-04-06T08:43:48;0.85;;;0.85;;
22907;SDS011;11620;50.050;8.690;2023-04-06T08:46:20;0.98;;;0.98;;
22907;SDS011;11620;50.050;8.690;2023-04-06T08:48:47;0.90;;;0.90;;
22907;SDS011;11620;50.050;8.690;2023-04-06T08:51:16;1.00;;;1.00;;
22907;SDS011;11620;50.050;8.690;2023-04-06T08:53:44;1.00;;;1.00;;
22907;SDS011;11620;50.050;8.690;2023-04-06T08:56:28;1.00;;;1.00;;
22907;SDS011;11620;50.050;8.690;2023-04-06T08:59:15;1.05;;;1.05;;
22907;SDS011;11620;50.050;8.690;2023-04-06T09:02:03;0.98;;;0.98;;
22907;SDS011;11620;50.050;8.690;2023-04-06T09:04:53;0.90;;;0.90;;
22907;SDS011;11620;50.050;8.690;2023-04-06T09:07:40;0.80;;;0.80;;
22907;SDS011;11620;50.050;8.690;2023-04-06T09:10:27;0.80;;;0.80;;
22907;SDS011;11620;50.050;8.690;2023-04-06T09:13:14;0.70;;;0.70;;
22907;SDS011;11620;50.050;8.690;2023-04-06T09:16:04;0.90;;;0.90;;
22907;SDS011;11620;50.050;8.690;2023-04-06T09:18:52;0.80;;;0.80;;
22907;SDS011;11620;50.050;8.690;2023-04-06T09:21:18;0.80;;;0.80;;
22907;SDS011;11620;50.050;8.690;2023-04-06T09:23:44;0.80;;;0.80;;
22907;SDS011;11620;50.050;8.690;2023-04-06T09:28:51;0.80;;;0.80;;
22907;SDS011;11620;50.050;8.690;2023-04-06T09:31:24;0.70;;;0.70;;
22907;SDS011;11620;50.050;8.690;2023-04-06T09:33:52;0.90;;;0.90;;
22907;SDS011;11620;50.050;8.690;2023-04-06T09:36:19;0.80;;;0.80;;
22907;SDS011;11620;50.050;8.690;2023-04-06T09:39:14;0.80;;;0.80;;
22907;SDS011;11620;50.050;8.690;2023-04-06T09:42:01;0.70;;;0.70;;
22907;SDS011;11620;50.050;8.690;2023-04-06T09:44:48;0.80;;;0.80;;
22907;SDS011;11620;50.050;8.690;2023-04-06T09:47:35;0.70;;;0.70;;
22907;SDS011;11620;50.050;8.690;2023-04-06T09:50:22;0.80;;;0.80;;
22907;SDS011;11620;50.050;8.690;2023-04-06T09:53:11;0.70;;;0.70;;
22907;SDS011;11620;50.050;8.690;2023-04-06T09:55:58;0.70;;;0.70;;
22907;SDS011;11620;50.050;8.690;2023-04-06T09:58:48;0.80;;;0.80;;
22907;SDS011;11620;50.050;8.690;2023-04-06T10:01:37;0.70;;;0.70;;
22907;SDS011;11620;50.050;8.690;2023-04-06T10:04:47;0.50;;;0.50;;
22907;SDS011;11620;50.050;8.690;2023-04-06T10:07:39;0.73;;;0.73;;
22907;SDS011;11620;50.050;8.690;2023-04-06T10:10:28;0.70;;;0.70;;
22907;SDS011;11620;50.050;8.690;2023-04-06T10:13:14;0.70;;;0.70;;
22907;SDS011;11620;50.050;8.690;2023-04-06T10:16:01;0.73;;;0.73;;
22907;SDS011;11620;50.050;8.690;2023-04-06T10:18:52;0.60;;;0.60;;
22907;SDS011;11620;50.050;8.690;2023-04-06T10:21:43;0.70;;;0.70;;
22907;SDS011;11620;50.050;8.690;2023-04-06T10:24:34;0.55;;;0.55;;
22907;SDS011;11620;50.050;8.690;2023-04-06T10:27:27;0.60;;;0.60;;
22907;SDS011;11620;50.050;8.690;2023-04-06T10:30:15;0.68;;;0.68;;
22907;SDS011;11620;50.050;8.690;2023-04-06T10:39:06;0.80;;;0.80;;
22907;SDS011;11620;50.050;8.690;2023-04-06T10:41:53;0.70;;;0.70;;
22907;SDS011;11620;50.050;8.690;2023-04-06T10:44:43;0.80;;;0.80;;
22907;SDS011;11620;50.050;8.690;2023-04-06T10:47:38;0.60;;;0.60;;
22907;SDS011;11620;50.050;8.690;2023-04-06T10:50:25;0.60;;;0.60;;
22907;SDS011;11620;50.050;8.690;2023-04-06T10:53:11;0.50;;;0.50;;
22907;SDS011;11620;50.050;8.690;2023-04-06T10:56:09;0.70;;;0.70;;
22907;SDS011;11620;50.050;8.690;2023-04-06T10:58:59;0.68;;;0.68;;
22907;SDS011;11620;50.050;8.690;2023-04-06T11:01:45;0.60;;;0.60;;
22907;SDS011;11620;50.050;8.690;2023-04-06T11:04:32;0.50;;;0.50;;
22907;SDS011;11620;50.050;8.690;2023-04-06T11:07:22;0.60;;;0.60;;
22907;SDS011;11620;50.050;8.690;2023-04-06T11:10:10;0.63;;;0.63;;
22907;SDS011;11620;50.050;8.690;2023-04-06T11:12:56;0.70;;;0.70;;
22907;SDS011;11620;50.050;8.690;2023-04-06T11:15:43;0.60;;;0.60;;
22907;SDS011;11620;50.050;8.690;2023-04-06T11:18:29;0.63;;;0.63;;
22907;SDS011;11620;50.050;8.690;2023-04-06T11:21:17;0.63;;;0.63;;
22907;SDS011;11620;50.050;8.690;2023-04-06T11:26:58;0.60;;;0.60;;
22907;SDS011;11620;50.050;8.690;2023-04-06T11:29:46;0.70;;;0.70;;
22907;SDS011;11620;50.050;8.690;2023-04-06T11:32:39;0.47;;;0.47;;
22907;SDS011;11620;50.050;8.690;2023-04-06T11:35:30;0.65;;;0.65;;
22907;SDS011;11620;50.050;8.690;2023-04-06T11:38:18;0.60;;;0.60;;
22907;SDS011;11620;50.050;8.690;2023-04-06T11:41:06;0.60;;;0.60;;
22907;SDS011;11620;50.050;8.690;2023-04-06T11:43:54;0.70;;;0.70;;
22907;SDS011;11620;50.050;8.690;2023-04-06T11:46:50;0.65;;;0.65;;
22907;SDS011;11620;50.050;8.690;2023-04-06T11:49:41;0.80;;;0.80;;
22907;SDS011;11620;50.050;8.690;2023-04-06T11:52:30;0.70;;;0.70;;
22907;SDS011;11620;50.050;8.690;2023-04-06T11:55:17;0.70;;;0.70;;
22907;SDS011;11620;50.050;8.690;2023-04-06T11:58:04;0.60;;;0.60;;
22907;SDS011;11620;50.050;8.690;2023-04-06T12:00:51;0.70;;;0.70;;
22907;SDS011;11620;50.050;8.690;2023-04-06T12:03:38;0.70;;;0.70;;
22907;SDS011;11620;50.050;8.690;2023-04-06T12:06:24;0.57;;;0.57;;
22907;SDS011;11620;50.050;8.690;2023-04-06T12:09:11;0.80;;;0.80;;
22907;SDS011;11620;50.050;8.690;2023-04-06T12:11:58;0.60;;;0.60;;
22907;SDS011;11620;50.050;8.690;2023-04-06T12:14:44;0.68;;;0.68;;
22907;SDS011;11620;50.050;8.690;2023-04-06T12:17:30;0.80;;;0.80;;
22907;SDS011;11620;50.050;8.690;2023-04-06T12:20:17;0.70;;;0.70;;
22907;SDS011;11620;50.050;8.690;2023-04-06T12:23:03;0.60;;;0.60;;
22907;SDS011;11620;50.050;8.690;2023-04-06T12:25:50;0.60;;;0.60;;
22907;SDS011;11620;50.050;8.690;2023-04-06T12:28:36;0.60;;;0.60;;
22907;SDS011;11620;50.050;8.690;2023-04-06T12:31:22;0.70;;;0.70;;
22907;SDS011;11620;50.050;8.690;2023-04-06T12:34:11;0.70;;;0.70;;
22907;SDS011;11620;50.050;8.690;2023-04-06T12:36:57;0.70;;;0.70;;
22907;SDS011;11620;50.050;8.690;2023-04-06T12:39:43;0.50;;;0.50;;
22907;SDS011;11620;50.050;8.690;2023-04-06T12:42:30;0.60;;;0.60;;
22907;SDS011;11620;50.050;8.690;2023-04-06T12:45:16;0.55;;;0.55;;
22907;SDS011;11620;50.050;8.690;2023-04-06T12:48:03;0.60;;;0.60;;
22907;SDS011;11620;50.050;8.690;2023-04-06T12:51:00;0.60;;;0.60;;
22907;SDS011;11620;50.050;8.690;2023-04-06T12:53:47;0.60;;;0.60;;
22907;SDS011;11620;50.050;8.690;2023-04-06T12:56:34;0.60;;;0.60;;
22907;SDS011;11620;50.050;8.690;2023-04-06T12:59:20;0.52;;;0.52;;
22907;SDS011;11620;50.050;8.690;2023-04-06T13:02:07;0.70;;;0.70;;
22907;SDS011;11620;50.050;8.690;2023-04-06T13:04:53;0.60;;;0.60;;
22907;SDS011;11620;50.050;8.690;2023-04-06T13:07:40;0.68;;;0.68;;
22907;SDS011;11620;50.050;8.690;2023-04-06T13:10:26;0.50;;;0.50;;
22907;SDS011;11620;50.050;8.690;2023-04-06T13:13:12;0.50;;;0.50;;
22907;SDS011;11620;50.050;8.690;2023-04-06T13:16:00;0.52;;;0.52;;
22907;SDS011;11620;50.050;8.690;2023-04-06T13:18:49;0.52;;;0.52;;
22907;SDS011;11620;50.050;8.690;2023-04-06T13:21:35;0.60;;;0.60;;
22907;SDS011;11620;50.050;8.690;2023-04-06T13:24:22;0.65;;;0.65;;
22907;SDS011;11620;50.050;8.690;2023-04-06T13:27:08;0.50;;;0.50;;
22907;SDS011;11620;50.050;8.690;2023-04-06T13:29:55;0.50;;;0.50;;
22907;SDS011;11620;50.050;8.690;2023-04-06T13:32:41;0.55;;;0.55;;
22907;SDS011;11620;50.050;8.690;2023-04-06T13:35:28;0.55;;;0.55;;
22907;SDS011;11620;50.050;8.690;2023-04-06T13:38:14;0.60;;;0.60;;
22907;SDS011;11620;50.050;8.690;2023-04-06T13:41:01;0.52;;;0.52;;
22907;SDS011;11620;50.050;8.690;2023-04-06T13:43:48;0.60;;;0.60;;
22907;SDS011;11620;50.050;8.690;2023-04-06T13:46:34;0.60;;;0.60;;
22907;SDS011;11620;50.050;8.690;2023-04-06T13:49:20;0.60;;;0.60;;
22907;SDS011;11620;50.050;8.690;2023-04-06T13:52:07;0.60;;;0.60;;
22907;SDS011;11620;50.050;8.690;2023-04-06T13:54:55;0.50;;;0.50;;
22907;SDS011;11620;50.050;8.690;2023-04-06T13:57:41;0.45;;;0.45;;
22907;SDS011;11620;50.050;8.690;2023-04-06T14:00:28;0.60;;;0.60;;
22907;SDS011;11620;50.050;8.690;2023-04-06T14:03:14;0.50;;;0.50;;
22907;SDS011;11620;50.050;8.690;2023-04-06T14:06:01;0.57;;;0.57;;
22907;SDS011;11620;50.050;8.690;2023-04-06T14:08:55;0.52;;;0.52;;
22907;SDS011;11620;50.050;8.690;2023-04-06T14:11:42;0.60;;;0.60;;
22907;SDS011;11620;50.050;8.690;2023-04-06T14:14:28;0.60;;;0.60;;
22907;SDS011;11620;50.050;8.690;2023-04-06T14:17:15;0.60;;;0.60;;
22907;SDS011;11620;50.050;8.690;2023-04-06T14:20:01;0.60;;;0.60;;
22907;SDS011;11620;50.050;8.690;2023-04-06T14:22:48;0.57;;;0.57;;
22907;SDS011;11620;50.050;8.690;2023-04-06T14:25:35;0.70;;;0.70;;
22907;SDS011;11620;50.050;8.690;2023-04-06T14:28:21;0.57;;;0.57;;
22907;SDS011;11620;50.050;8.690;2023-04-06T14:31:14;0.60;;;0.60;;
22907;SDS011;11620;50.050;8.690;2023-04-06T14:34:02;0.60;;;0.60;;
22907;SDS011;11620;50.050;8.690;2023-04-06T14:36:48;0.70;;;0.70;;
22907;SDS011;11620;50.050;8.690;2023-04-06T14:39:35;0.60;;;0.60;;
22907;SDS011;11620;50.050;8.690;2023-04-06T14:42:21;0.60;;;0.60;;
22907;SDS011;11620;50.050;8.690;2023-04-06T14:45:08;0.70;;;0.70;;
22907;SDS011;11620;50.050;8.690;2023-04-06T14:47:54;0.63;;;0.63;;
22907;SDS011;11620;50.050;8.690;2023-04-06T14:50:41;0.60;;;0.60;;
22907;SDS011;11620;50.050;8.690;2023-04-06T14:53:32;0.70;;;0.70;;
22907;SDS011;11620;50.050;8.690;2023-04-06T14:56:22;0.70;;;0.70;;
22907;SDS011;11620;50.050;8.690;2023-04-06T14:59:09;0.60;;;0.60;;
22907;SDS011;11620;50.050;8.690;2023-04-06T15:01:55;0.40;;;0.40;;
22907;SDS011;11620;50.050;8.690;2023-04-06T15:04:41;0.60;;;0.60;;
22907;SDS011;11620;50.050;8.690;2023-04-06T15:07:28;0.60;;;0.60;;
22907;SDS011;11620;50.050;8.690;2023-04-06T15:10:14;0.60;;;0.60;;
22907;SDS011;11620;50.050;8.690;2023-04-06T15:13:01;0.50;;;0.50;;
22907;SDS011;11620;50.050;8.690;2023-04-06T15:15:49;0.70;;;0.70;;
22907;SDS011;11620;50.050;8.690;2023-04-06T15:18:37;0.63;;;0.63;;
22907;SDS011;11620;50.050;8.690;2023-04-06T15:21:26;0.73;;;0.73;;
22907;SDS011;11620;50.050;8.690;2023-04-06T15:24:12;0.57;;;0.57;;
22907;SDS011;11620;50.050;8.690;2023-04-06T15:26:59;0.60;;;0.60;;
22907;SDS011;11620;50.050;8.690;2023-04-06T15:29:45;0.60;;;0.60;;
22907;SDS011;11620;50.050;8.690;2023-04-06T15:32:31;0.60;;;0.60;;
22907;SDS011;11620;50.050;8.690;2023-04-06T15:35:18;0.63;;;0.63;;
22907;SDS011;11620;50.050;8.690;2023-04-06T15:38:04;0.60;;;0.60;;
22907;SDS011;11620;50.050;8.690;2023-04-06T15:40:52;0.60;;;0.60;;
22907;SDS011;11620;50.050;8.690;2023-04-06T15:43:38;0.50;;;0.50;;
22907;SDS011;11620;50.050;8.690;2023-04-06T15:46:25;0.70;;;0.70;;
22907;SDS011;11620;50.050;8.690;2023-04-06T15:49:14;0.60;;;0.60;;
22907;SDS011;11620;50.050;8.690;2023-04-06T15:52:01;0.70;;;0.70;;
22907;SDS011;11620;50.050;8.690;2023-04-06T15:54:47;0.50;;;0.50;;
22907;SDS011;11620;50.050;8.690;2023-04-06T15:57:33;0.60;;;0.60;;
22907;SDS011;11620;50.050;8.690;2023-04-06T16:00:20;0.57;;;0.57;;
22907;SDS011;11620;50.050;8.690;2023-04-06T16:03:07;0.70;;;0.70;;
22907;SDS011;11620;50.050;8.690;2023-04-06T16:05:53;0.60;;;0.60;;
22907;SDS011;11620;50.050;8.690;2023-04-06T16:08:39;0.50;;;0.50;;
22907;SDS011;11620;50.050;8.690;2023-04-06T16:11:26;0.63;;;0.63;;
22907;SDS011;11620;50.050;8.690;2023-04-06T16:14:13;0.60;;;0.60;;
22907;SDS011;11620;50.050;8.690;2023-04-06T16:16:59;0.70;;;0.70;;
22907;SDS011;11620;50.050;8.690;2023-04-06T16:19:45;0.80;;;0.80;;
22907;SDS011;11620;50.050;8.690;2023-04-06T16:22:32;0.60;;;0.60;;
22907;SDS011;11620;50.050;8.690;2023-04-06T16:25:18;0.70;;;0.70;;
22907;SDS011;11620;50.050;8.690;2023-04-06T16:28:04;0.60;;;0.60;;
22907;SDS011;11620;50.050;8.690;2023-04-06T16:30:51;0.70;;;0.70;;
22907;SDS011;11620;50.050;8.690;2023-04-06T16:33:38;0.68;;;0.68;;
22907;SDS011;11620;50.050;8.690;2023-04-06T16:36:25;0.60;;;0.60;;
22907;SDS011;11620;50.050;8.690;2023-04-06T16:39:12;0.60;;;0.60;;
22907;SDS011;11620;50.050;8.690;2023-04-06T16:41:58;0.65;;;0.65;;
22907;SDS011;11620;50.050;8.690;2023-04-06T16:44:45;0.60;;;0.60;;
22907;SDS011;11620;50.050;8.690;2023-04-06T16:47:34;0.70;;;0.70;;
22907;SDS011;11620;50.050;8.690;2023-04-06T16:50:21;0.65;;;0.65;;
22907;SDS011;11620;50.050;8.690;2023-04-06T16:53:07;0.75;;;0.75;;
22907;SDS011;11620;50.050;8.690;2023-04-06T16:55:55;0.65;;;0.65;;